Date,TemperatureHighF,TemperatureAvgF,TemperatureLowF,DewpointHighF,DewpointAvgF,DewpointLowF,HumidityHigh,HumidityAvg,HumidityLow,PressureMaxIn,PressureMinIn,WindSpeedMaxMPH,WindSpeedAvgMPH,GustSpeedMaxMPH,PrecipitationSumIn
2013-4-1,28.0,19.8,13.0,19.0,14.4,10.0,92,79,62,0.00,40.00,17,12,22,0.00
2013-4-2,32.0,23.7,14.0,21.0,16.4,14.0,99,75,50,0.00,40.00,10,6,14,0.00
2013-4-3,44.0,32.6,16.0,37.0,27.8,16.0,99,83,71,0.00,40.00,26,14,32,0.00
2013-4-4,42.0,35.4,27.0,36.0,30.1,25.0,99,81,65,0.00,40.00,22,13,32,0.00
2013-4-5,35.0,29.6,23.0,34.0,26.7,21.0,98,88,65,0.00,40.00,20,11,27,0.00
2013-4-6,45.0,38.5,34.0,39.0,35.4,32.0,99,88,78,0.00,40.00,20,11,24,0.00
2013-4-7,44.0,38.0,31.0,39.0,35.3,30.0,99,91,76,0.00,40.00,13,7,17,0.00
2013-4-8,41.0,38.1,36.0,41.0,37.7,36.0,100,98,96,0.00,40.00,16,10,20,0.00
2013-4-9,36.0,31.3,26.0,36.0,24.6,19.0,99,77,61,0.00,40.00,22,14,30,0.00
2013-4-10,37.0,34.0,31.0,28.0,24.1,21.0,90,67,54,0.00,40.00,22,15,27,0.00
2013-4-11,34.0,30.0,27.0,30.0,28.0,25.0,99,93,70,0.00,40.00,24,18,34,0.01
2013-4-12,33.0,30.5,27.0,30.0,28.6,27.0,99,93,84,0.00,40.00,17,10,21,0.01
2013-4-13,37.0,30.6,27.0,28.0,25.7,21.0,99,82,58,0.00,40.00,12,8,17,0.01
2013-4-14,31.0,28.8,27.0,30.0,26.7,25.0,99,92,83,0.00,40.00,31,17,39,0.00
2013-4-15,36.0,33.5,31.0,32.0,31.1,30.0,99,92,82,0.00,40.00,22,-1,30,0.00
2013-4-16,37.0,32.5,27.0,30.0,28.3,27.0,99,85,70,0.00,40.00,21,10,26,0.00
2013-4-17,37.0,33.7,29.0,34.0,31.3,28.0,99,91,82,0.00,40.00,19,9,26,0.00
2013-4-18,32.0,30.6,30.0,32.0,30.1,30.0,99,99,99,0.00,40.00,26,14,35,0.05
2013-4-19,35.0,30.4,25.0,28.0,23.6,18.0,100,77,57,0.00,40.00,24,19,34,0.06
2013-4-20,36.0,27.8,14.0,23.0,18.7,14.0,100,71,44,0.00,40.00,13,7,17,0.00
2013-4-21,44.0,36.6,30.0,41.0,35.0,21.0,99,94,67,0.00,40.00,24,16,34,0.00
2013-4-22,36.0,32.2,28.0,34.0,30.3,27.0,100,93,68,0.00,40.00,16,9,25,0.02
2013-4-23,35.0,27.8,17.0,27.0,21.3,16.0,97,78,57,0.00,40.00,17,12,22,0.01
2013-4-24,47.0,35.0,25.0,37.0,30.1,25.0,100,83,63,0.00,40.00,22,12,29,0.01
2013-4-25,50.0,39.1,27.0,34.0,30.5,27.0,99,74,47,0.00,40.00,18,10,24,0.01
2013-4-26,65.0,51.9,37.0,46.0,39.2,32.0,99,65,35,0.00,40.00,16,7,20,0.00
2013-4-27,75.0,56.6,36.0,46.0,39.7,36.0,98,58,30,0.00,40.00,16,8,21,0.00
2013-4-28,76.0,59.7,49.0,54.0,48.4,36.0,95,68,38,0.00,40.00,18,11,25,0.00
2013-4-29,73.0,56.2,36.0,52.0,41.1,36.0,99,63,29,0.00,40.00,14,7,21,0.00
2013-4-30,65.0,59.0,48.0,61.0,47.0,34.0,94,67,35,0.00,40.00,32,17,43,0.00